createdAt,value
2023-04-22T00:00:35.975Z,99464.63
2023-04-22T00:10:41.739Z,99459.15
2023-04-22T00:20:47.966Z,99454.38
2023-04-22T00:30:53.520Z,99451.19
2023-04-22T00:41:00.200Z,99441.80
2023-04-22T00:51:06.522Z,99435.61
2023-04-22T01:01:12.697Z,99433.64
2023-04-22T01:11:18.922Z,99438.53
2023-04-22T01:21:25.433Z,99438.98
2023-04-22T01:31:31.813Z,99439.14
2023-04-22T01:41:37.833Z,99436.30
2023-04-22T01:51:43.825Z,99438.67
2023-04-22T02:01:49.856Z,99436.66
2023-04-22T02:11:55.781Z,99443.00
2023-04-22T02:22:02.310Z,99444.15
2023-04-22T02:32:08.146Z,99436.98
2023-04-22T02:42:13.919Z,99434.91
2023-04-22T02:52:20.077Z,99436.30
2023-04-22T03:02:25.949Z,99433.68
2023-04-22T03:12:31.740Z,99439.00
2023-04-22T03:22:37.486Z,99437.89
2023-04-22T03:32:43.293Z,99438.56
2023-04-22T03:42:49.308Z,99433.14
2023-04-22T03:52:55.590Z,99431.84
2023-04-22T04:03:01.503Z,99437.33
2023-04-22T04:13:07.863Z,99439.67
2023-04-22T04:23:13.827Z,99440.51
2023-04-22T04:33:19.620Z,99444.59
2023-04-22T04:43:27.234Z,99443.59
2023-04-22T04:53:33.141Z,99443.61
2023-04-22T05:03:39.051Z,99445.48
2023-04-22T05:13:45.414Z,99439.66
2023-04-22T05:23:51.270Z,99422.37
2023-04-22T05:33:56.997Z,99407.80
2023-04-22T05:44:02.967Z,99401.17
2023-04-22T05:54:09.378Z,99390.30
2023-04-22T06:04:15.248Z,99387.67
2023-04-22T06:14:21.594Z,99394.58
2023-04-22T06:24:27.393Z,99387.95
2023-04-22T06:34:33.722Z,99390.05
2023-04-22T06:44:39.672Z,99391.80
2023-04-22T06:54:45.576Z,99392.14
2023-04-22T07:04:51.608Z,99393.14
2023-04-22T07:14:57.338Z,99392.17
2023-04-22T07:25:03.139Z,99393.48
2023-04-22T07:35:10.693Z,99397.41
2023-04-22T07:45:16.499Z,99394.06
2023-04-22T07:55:20.812Z,99389.93
2023-04-22T08:05:26.733Z,99390.46
2023-04-22T08:15:32.989Z,99383.35
2023-04-22T08:25:39.148Z,99379.04
2023-04-22T08:35:45.479Z,99374.84
2023-04-22T08:45:52.284Z,99382.35
2023-04-22T08:55:58.701Z,99388.10
2023-04-22T09:06:03.959Z,99390.98
2023-04-22T09:16:10.789Z,99385.75
2023-04-22T09:26:18.443Z,99377.75
2023-04-22T09:36:27.356Z,99370.31
2023-04-22T09:46:34.954Z,99360.83
2023-04-22T09:56:48.141Z,99352.32
2023-04-22T10:06:55.032Z,99348.63
2023-04-22T10:17:04.141Z,99343.27
2023-04-22T10:27:11.744Z,99337.14
2023-04-22T10:37:18.993Z,99326.64
2023-04-22T10:47:32.855Z,99323.33
2023-04-22T10:57:43.610Z,99317.48
2023-04-22T11:07:50.712Z,99301.91
2023-04-22T11:17:57.267Z,99301.17
2023-04-22T11:28:03.896Z,99289.36
2023-04-22T11:38:10.543Z,99283.61
2023-04-22T11:48:17.433Z,99282.85
2023-04-22T11:58:28.280Z,99282.35
2023-04-22T12:08:36.775Z,99276.73
2023-04-22T12:18:49.504Z,99265.48
2023-04-22T12:28:56.220Z,99263.91
2023-04-22T12:39:01.915Z,99257.77
2023-04-22T12:49:07.753Z,99248.60
2023-04-22T12:59:13.958Z,99237.71
2023-04-22T13:09:19.881Z,99235.30
2023-04-22T13:19:27.103Z,99227.95
2023-04-22T13:29:32.865Z,99216.36
2023-04-22T13:39:38.829Z,99209.46
2023-04-22T13:49:45.132Z,99209.10
2023-04-22T13:59:51.841Z,99201.55
2023-04-22T14:09:57.689Z,99200.87
2023-04-22T14:20:03.725Z,99195.48
2023-04-22T14:30:11.400Z,99190.09
2023-04-22T14:40:17.634Z,99181.13
2023-04-22T14:50:23.426Z,99182.02
2023-04-22T15:00:29.496Z,99176.59
2023-04-22T15:10:35.346Z,99169.48
2023-04-22T15:20:41.174Z,99161.91
2023-04-22T15:30:48.707Z,99160.36
2023-04-22T15:40:54.494Z,99162.92
2023-04-22T15:51:00.185Z,99163.30
2023-04-22T16:01:18.145Z,99150.16
2023-04-22T16:11:25.409Z,99149.34
2023-04-22T16:21:32.745Z,99146.38
2023-04-22T16:31:38.961Z,99146.95
2023-04-22T16:41:44.720Z,99145.85
2023-04-22T16:51:51.198Z,99141.32
2023-04-22T17:01:57.353Z,99136.34
2023-04-22T17:12:03.519Z,99132.58
2023-04-22T17:22:09.276Z,99137.66
2023-04-22T17:32:15.154Z,99134.82
2023-04-22T17:42:21.060Z,99137.02
2023-04-22T17:52:27.901Z,99139.77
2023-04-22T18:02:33.943Z,99144.79
2023-04-22T18:12:40.013Z,99154.24
2023-04-22T18:22:45.824Z,99159.91
2023-04-22T18:32:51.980Z,99164.64
2023-04-22T18:42:58.407Z,99164.69
2023-04-22T18:53:04.213Z,99170.41
2023-04-22T19:03:10.185Z,99173.80
2023-04-22T19:13:28.575Z,99173.11
2023-04-22T19:23:35.242Z,99171.31
2023-04-22T19:33:41.027Z,99166.61
2023-04-22T19:43:47.160Z,99168.54
2023-04-22T19:53:55.316Z,99166.44
2023-04-22T20:04:04.241Z,99164.63
2023-04-22T20:14:10.678Z,99163.02
2023-04-22T20:24:19.570Z,99162.42
2023-04-22T20:34:26.958Z,99153.77
2023-04-22T20:44:32.550Z,99153.58
2023-04-22T20:54:39.319Z,99158.39
2023-04-22T21:04:45.483Z,99152.52
2023-04-22T21:14:51.733Z,99149.71
2023-04-22T21:24:59.480Z,99144.45
2023-04-22T21:35:05.899Z,99143.39
2023-04-22T21:45:13.021Z,99150.23
2023-04-22T21:55:19.208Z,99149.38
2023-04-22T22:05:24.857Z,99151.60
2023-04-22T22:15:30.584Z,99154.85
2023-04-22T22:25:36.216Z,99151.65
2023-04-22T22:35:42.011Z,99154.84
2023-04-22T22:45:48.057Z,99151.16
2023-04-22T22:55:54.047Z,99148.74
2023-04-22T23:06:00.051Z,99155.71
2023-04-22T23:16:06.472Z,99155.96
2023-04-22T23:26:13.680Z,99149.58
2023-04-22T23:36:21.412Z,99149.70
2023-04-22T23:46:25.930Z,99143.45
2023-04-22T23:56:33.238Z,99147.06
